Observation data for Abernathy on 07/11/2020      Previous  Date  Next       Current Mesonet Observations  Soil Data  Daily Summary Page  Observations in Plain Language
KARS 110500Z 17012KT 30/17 A3006 RMK A01 T02980169  RH  048%=      5-min Rain = 0
KARS 110505Z 17013KT 30/17 A3007 RMK A01 T02980168  RH  048%=      5-min Rain = 0
KARS 110510Z 17013KT 30/17 A3007 RMK A01 T02970168  RH  048%=      5-min Rain = 0
KARS 110515Z 16012KT 30/17 A3007 RMK A01 T02950167  RH  048%=      5-min Rain = 0
KARS 110520Z 17012KT 30/17 A3007 RMK A01 T02950167  RH  048%=      5-min Rain = 0
KARS 110525Z 17012KT 29/17 A3007 RMK A01 T02930167  RH  049%=      5-min Rain = 0
KARS 110530Z 17011KT 29/17 A3007 RMK A01 T02920167  RH  049%=      5-min Rain = 0
KARS 110535Z 16011KT 29/17 A3007 RMK A01 T02910167  RH  049%=      5-min Rain = 0
KARS 110540Z 16011KT 29/17 A3007 RMK A01 T02900167  RH  050%=      5-min Rain = 0
KARS 110545Z 16010KT 29/17 A3007 RMK A01 T02870167  RH  051%=      5-min Rain = 0
KARS 110550Z 16010KT 29/17 A3007 RMK A01 T02860168  RH  051%=      5-min Rain = 0
KARS 110555Z 16010KT 29/17 A3007 RMK A01 T02850168  RH  052%=      5-min Rain = 0
KARS 110600Z 16011KT 28/17 A3007 RMK A01 T02830168  RH  052%=      5-min Rain = 0
KARS 110605Z 16010KT 28/17 A3007 RMK A01 T02820168  RH  053%=      5-min Rain = 0
KARS 110610Z 16009KT 28/17 A3007 RMK A01 T02800169  RH  053%=      5-min Rain = 0
KARS 110615Z 16008KT 28/17 A3007 RMK A01 T02780169  RH  054%=      5-min Rain = 0
KARS 110620Z 16009KT 28/17 A3007 RMK A01 T02760169  RH  055%=      5-min Rain = 0
KARS 110625Z 16009KT 28/17 A3006 RMK A01 T02750169  RH  055%=      5-min Rain = 0
KARS 110630Z 16009KT 27/17 A3006 RMK A01 T02740170  RH  056%=      5-min Rain = 0
KARS 110635Z 16009KT 27/17 A3006 RMK A01 T02720170  RH  056%=      5-min Rain = 0
KARS 110640Z 16009KT 27/17 A3006 RMK A01 T02710170  RH  057%=      5-min Rain = 0
KARS 110645Z 16009KT 27/17 A3006 RMK A01 T02700170  RH  057%=      5-min Rain = 0
KARS 110650Z 16009KT 27/17 A3006 RMK A01 T02680171  RH  058%=      5-min Rain = 0
KARS 110655Z 16008KT 27/17 A3006 RMK A01 T02670171  RH  058%=      5-min Rain = 0
KARS 110700Z 17008KT 27/17 A3006 RMK A01 T02660171  RH  059%=      5-min Rain = 0
KARS 110705Z 18007KT 27/17 A3006 RMK A01 T02650171  RH  059%=      5-min Rain = 0
KARS 110710Z 18007KT 26/17 A3006 RMK A01 T02620170  RH  060%=      5-min Rain = 0
KARS 110715Z 18007KT 26/17 A3006 RMK A01 T02600170  RH  060%=      5-min Rain = 0
KARS 110720Z 19007KT 26/17 A3006 RMK A01 T02600169  RH  060%=      5-min Rain = 0
KARS 110725Z 19007KT 26/17 A3006 RMK A01 T02590169  RH  060%=      5-min Rain = 0
KARS 110730Z 19007KT 26/17 A3006 RMK A01 T02570168  RH  061%=      5-min Rain = 0
KARS 110735Z 19007KT 26/17 A3006 RMK A01 T02560168  RH  061%=      5-min Rain = 0
KARS 110740Z 19007KT 26/17 A3006 RMK A01 T02550167  RH  061%=      5-min Rain = 0
KARS 110745Z 19006KT 25/17 A3006 RMK A01 T02540167  RH  061%=      5-min Rain = 0
KARS 110750Z 19007KT 25/17 A3006 RMK A01 T02540167  RH  061%=      5-min Rain = 0
KARS 110755Z 19007KT 25/17 A3006 RMK A01 T02530167  RH  062%=      5-min Rain = 0
KARS 110800Z 18006KT 25/17 A3006 RMK A01 T02510166  RH  062%=      5-min Rain = 0
KARS 110805Z 18006KT 25/17 A3006 RMK A01 T02510165  RH  062%=      5-min Rain = 0
KARS 110810Z 18006KT 25/17 A3006 RMK A01 T02500165  RH  062%=      5-min Rain = 0
KARS 110815Z 19006KT 25/16 A3006 RMK A01 T02490164  RH  062%=      5-min Rain = 0
KARS 110820Z 19006KT 25/16 A3006 RMK A01 T02460164  RH  063%=      5-min Rain = 0
KARS 110825Z 19006KT 25/16 A3006 RMK A01 T02450164  RH  064%=      5-min Rain = 0
KARS 110830Z 19007KT 24/16 A3006 RMK A01 T02440164  RH  064%=      5-min Rain = 0
KARS 110835Z 19007KT 25/16 A3006 RMK A01 T02450163  RH  063%=      5-min Rain = 0
KARS 110840Z 19007KT 25/16 A3006 RMK A01 T02470163  RH  062%=      5-min Rain = 0
KARS 110845Z 19007KT 25/16 A3006 RMK A01 T02460163  RH  063%=      5-min Rain = 0
KARS 110850Z 19007KT 25/16 A3006 RMK A01 T02450162  RH  063%=      5-min Rain = 0
KARS 110855Z 19006KT 24/16 A3006 RMK A01 T02440163  RH  063%=      5-min Rain = 0
KARS 110900Z 19006KT 24/16 A3006 RMK A01 T02430162  RH  064%=      5-min Rain = 0
KARS 110905Z 20006KT 24/16 A3006 RMK A01 T02410162  RH  064%=      5-min Rain = 0
KARS 110910Z 20006KT 24/16 A3006 RMK A01 T02390162  RH  065%=      5-min Rain = 0
KARS 110915Z 20007KT 24/16 A3006 RMK A01 T02380162  RH  065%=      5-min Rain = 0
KARS 110920Z 20007KT 24/16 A3006 RMK A01 T02380161  RH  065%=      5-min Rain = 0
KARS 110925Z 21007KT 24/16 A3006 RMK A01 T02380161  RH  065%=      5-min Rain = 0
KARS 110930Z 21007KT 24/16 A3006 RMK A01 T02370161  RH  065%=      5-min Rain = 0
KARS 110935Z 21007KT 24/16 A3006 RMK A01 T02360161  RH  066%=      5-min Rain = 0
KARS 110940Z 22007KT 24/16 A3006 RMK A01 T02370161  RH  065%=      5-min Rain = 0
KARS 110945Z 23007KT 24/16 A3006 RMK A01 T02390161  RH  065%=      5-min Rain = 0
KARS 110950Z 22007KT 24/16 A3007 RMK A01 T02420161  RH  063%=      5-min Rain = 0
KARS 110955Z 22008KT 24/16 A3007 RMK A01 T02440160  RH  062%=      5-min Rain = 0
KARS 111000Z 22007KT 25/16 A3007 RMK A01 T02450159  RH  062%=      5-min Rain = 0
KARS 111005Z 21006KT 24/16 A3007 RMK A01 T02430159  RH  062%=      5-min Rain = 0
KARS 111010Z 21006KT 24/16 A3007 RMK A01 T02390158  RH  064%=      5-min Rain = 0
KARS 111015Z 22006KT 24/16 A3007 RMK A01 T02360158  RH  065%=      5-min Rain = 0
KARS 111020Z 21007KT 24/16 A3007 RMK A01 T02360159  RH  065%=      5-min Rain = 0
KARS 111025Z 21006KT 24/16 A3007 RMK A01 T02350158  RH  065%=      5-min Rain = 0
KARS 111030Z 21006KT 23/16 A3007 RMK A01 T02330158  RH  066%=      5-min Rain = 0
KARS 111035Z 22007KT 23/16 A3007 RMK A01 T02310158  RH  067%=      5-min Rain = 0
KARS 111040Z 21007KT 23/16 A3007 RMK A01 T02290158  RH  067%=      5-min Rain = 0
KARS 111045Z 21007KT 23/16 A3007 RMK A01 T02280158  RH  068%=      5-min Rain = 0
KARS 111050Z 21007KT 23/16 A3007 RMK A01 T02280158  RH  068%=      5-min Rain = 0
KARS 111055Z 21006KT 23/16 A3008 RMK A01 T02270158  RH  068%=      5-min Rain = 0
KARS 111100Z 21007KT 23/16 A3008 RMK A01 T02250158  RH  069%=      5-min Rain = 0
KARS 111105Z 22007KT 23/16 A3008 RMK A01 T02270159  RH  069%=      5-min Rain = 0
KARS 111110Z 22006KT 23/16 A3008 RMK A01 T02290160  RH  068%=      5-min Rain = 0
KARS 111115Z 23007KT 23/16 A3008 RMK A01 T02290161  RH  068%=      5-min Rain = 0
KARS 111120Z 23007KT 23/16 A3009 RMK A01 T02310160  RH  068%=      5-min Rain = 0
KARS 111125Z 23008KT 23/16 A3009 RMK A01 T02320160  RH  067%=      5-min Rain = 0
KARS 111130Z 23007KT 23/16 A3009 RMK A01 T02330160  RH  066%=      5-min Rain = 0
KARS 111135Z 23007KT 23/16 A3009 RMK A01 T02340160  RH  066%=      5-min Rain = 0
KARS 111140Z 23007KT 24/16 A3009 RMK A01 T02350160  RH  066%=      5-min Rain = 0
KARS 111145Z 23007KT 24/16 A3009 RMK A01 T02360160  RH  066%=      5-min Rain = 0
KARS 111150Z 22007KT 24/16 A3009 RMK A01 T02360160  RH  065%=      5-min Rain = 0
KARS 111155Z 22007KT 24/16 A3009 RMK A01 T02360160  RH  066%=      5-min Rain = 0
KARS 111200Z 22007KT 23/16 A3009 RMK A01 T02340160  RH  066%=      5-min Rain = 0
KARS 111205Z 22007KT 23/16 A3009 RMK A01 T02330160  RH  067%=      5-min Rain = 0
KARS 111210Z 22006KT 23/16 A3009 RMK A01 T02330160  RH  067%=      5-min Rain = 0
KARS 111215Z 23006KT 23/16 A3009 RMK A01 T02340161  RH  066%=      5-min Rain = 0
KARS 111220Z 22007KT 24/16 A3009 RMK A01 T02360161  RH  066%=      5-min Rain = 0
KARS 111225Z 22006KT 24/16 A3009 RMK A01 T02390162  RH  065%=      5-min Rain = 0
KARS 111230Z 20005KT 24/16 A301 RMK A01 T02410162  RH  064%=      5-min Rain = 0
KARS 111235Z 20005KT 24/16 A301 RMK A01 T02410163  RH  064%=      5-min Rain = 0
KARS 111240Z 20005KT 24/16 A301 RMK A01 T02430162  RH  064%=      5-min Rain = 0
KARS 111245Z 20004KT 25/16 A301 RMK A01 T02450164  RH  063%=      5-min Rain = 0
KARS 111250Z 19004KT 25/16 A301 RMK A01 T02480164  RH  063%=      5-min Rain = 0
KARS 111255Z 19005KT 25/16 A301 RMK A01 T02510163  RH  061%=      5-min Rain = 0
KARS 111300Z 20006KT 26/16 A3011 RMK A01 T02550163  RH  059%=      5-min Rain = 0
KARS 111305Z 20006KT 26/16 A3011 RMK A01 T02600163  RH  058%=      5-min Rain = 0
KARS 111310Z 21007KT 27/16 A3011 RMK A01 T02660162  RH  055%=      5-min Rain = 0
KARS 111315Z 21007KT 27/16 A3011 RMK A01 T02710162  RH  054%=      5-min Rain = 0
KARS 111320Z 21008KT 28/16 A3011 RMK A01 T02770161  RH  052%=      5-min Rain = 0
KARS 111325Z 21010KT 28/16 A3011 RMK A01 T02810160  RH  050%=      5-min Rain = 0
KARS 111330Z 21010KT 29/16 A3011 RMK A01 T02850158  RH  048%=      5-min Rain = 0
KARS 111335Z 21013KT 29/16 A3011 RMK A01 T02880155  RH  047%=      5-min Rain = 0
KARS 111340Z 22013KT 29/16 A3011 RMK A01 T02900155  RH  046%=      5-min Rain = 0
KARS 111345Z 21013KT 29/16 A3011 RMK A01 T02920155  RH  046%=      5-min Rain = 0
KARS 111350Z 21014KT 29/16 A3011 RMK A01 T02940155  RH  045%=      5-min Rain = 0
KARS 111355Z 21013G18KT 30/16 A3011 RMK A01 T02960156  RH  045%=      5-min Rain = 0
KARS 111400Z 21015KT 30/16 A3011 RMK A01 T02970155  RH  044%=      5-min Rain = 0
KARS 111405Z 21014KT 30/16 A3012 RMK A01 T02990156  RH  044%=      5-min Rain = 0
KARS 111410Z 21012KT 30/16 A3012 RMK A01 T03040157  RH  043%=      5-min Rain = 0
KARS 111415Z 21013KT 31/16 A3012 RMK A01 T03070158  RH  042%=      5-min Rain = 0
KARS 111420Z 21015KT 31/16 A3012 RMK A01 T03100156  RH  041%=      5-min Rain = 0
KARS 111425Z 21017KT 31/16 A3012 RMK A01 T03100155  RH  041%=      5-min Rain = 0
KARS 111430Z 21016KT 31/16 A3012 RMK A01 T03130156  RH  041%=      5-min Rain = 0
KARS 111435Z 21016G21KT 31/16 A3012 RMK A01 T03140156  RH  040%=      5-min Rain = 0
KARS 111440Z 22015KT 31/16 A3012 RMK A01 T03140157  RH  040%=      5-min Rain = 0
KARS 111445Z 22015KT 31/16 A3012 RMK A01 T03140158  RH  041%=      5-min Rain = 0
KARS 111450Z 23015KT 32/16 A3012 RMK A01 T03170158  RH  040%=      5-min Rain = 0
KARS 111455Z 23014G19KT 32/16 A3012 RMK A01 T03200160  RH  040%=      5-min Rain = 0
KARS 111500Z 23015KT 32/16 A3012 RMK A01 T03190159  RH  040%=      5-min Rain = 0
KARS 111505Z 22014KT 32/16 A3012 RMK A01 T03190159  RH  040%=      5-min Rain = 0
KARS 111510Z 22014KT 32/16 A3012 RMK A01 T03210159  RH  039%=      5-min Rain = 0
KARS 111515Z 22014G19KT 32/16 A3012 RMK A01 T03210160  RH  040%=      5-min Rain = 0
KARS 111520Z 22013KT 32/16 A3012 RMK A01 T03240161  RH  039%=      5-min Rain = 0
KARS 111525Z 22013G18KT 33/16 A3012 RMK A01 T03260161  RH  039%=      5-min Rain = 0
KARS 111530Z 22012KT 33/16 A3012 RMK A01 T03280160  RH  038%=      5-min Rain = 0
KARS 111535Z 22012KT 33/16 A3012 RMK A01 T03290162  RH  038%=      5-min Rain = 0
KARS 111540Z 22013KT 33/16 A3011 RMK A01 T03320161  RH  038%=      5-min Rain = 0
KARS 111545Z 22011KT 33/16 A3011 RMK A01 T03330162  RH  038%=      5-min Rain = 0
KARS 111550Z 23012KT 34/16 A3011 RMK A01 T03360162  RH  037%=      5-min Rain = 0
KARS 111555Z 22011KT 34/16 A3011 RMK A01 T03370162  RH  037%=      5-min Rain = 0
KARS 111600Z 23011KT 34/16 A3012 RMK A01 T03380162  RH  037%=      5-min Rain = 0
KARS 111605Z 23011KT 34/16 A3012 RMK A01 T03360161  RH  037%=      5-min Rain = 0
KARS 111610Z 22009KT 34/16 A3012 RMK A01 T03360161  RH  037%=      5-min Rain = 0
KARS 111615Z 22012G18KT 34/16 A3012 RMK A01 T03430161  RH  035%=      5-min Rain = 0
KARS 111620Z 22012G17KT 34/16 A3012 RMK A01 T03440159  RH  035%=      5-min Rain = 0
KARS 111625Z 21012G20KT 35/16 A3012 RMK A01 T03450160  RH  035%=      5-min Rain = 0
KARS 111630Z 22010G15KT 35/16 A3012 RMK A01 T03460156  RH  034%=      5-min Rain = 0
KARS 111635Z 21011KT 35/16 A3012 RMK A01 T03520159  RH  033%=      5-min Rain = 0
KARS 111640Z 20011G17KT 35/16 A3012 RMK A01 T03490159  RH  034%=      5-min Rain = 0
KARS 111645Z 20011KT 35/16 A3012 RMK A01 T03520157  RH  033%=      5-min Rain = 0
KARS 111650Z 19010G15KT 35/16 A3012 RMK A01 T03510158  RH  033%=      5-min Rain = 0
KARS 111655Z 20011G17KT 35/16 A3011 RMK A01 T03520157  RH  033%=      5-min Rain = 0
KARS 111700Z 20012KT 36/15 A3011 RMK A01 T03550154  RH  032%=      5-min Rain = 0
KARS 111705Z 19009G14KT 36/15 A3011 RMK A01 T03550153  RH  031%=      5-min Rain = 0
KARS 111710Z 18011KT 36/16 A3011 RMK A01 T03610155  RH  031%=      5-min Rain = 0
KARS 111715Z 20011G16KT 36/15 A3011 RMK A01 T03630151  RH  030%=      5-min Rain = 0
KARS 111720Z 19009KT 36/15 A3011 RMK A01 T03590150  RH  030%=      5-min Rain = 0
KARS 111725Z 20012KT 36/14 A3012 RMK A01 T03640144  RH  028%=      5-min Rain = 0
KARS 111730Z 19010KT 36/15 A3012 RMK A01 T03640149  RH  029%=      5-min Rain = 0
KARS 111735Z 20013G18KT 37/16 A3011 RMK A01 T03690157  RH  030%=      5-min Rain = 0
KARS 111740Z 18010G15KT 37/16 A3011 RMK A01 T03670156  RH  030%=      5-min Rain = 0
KARS 111745Z 18011G16KT 37/15 A3011 RMK A01 T03700154  RH  029%=      5-min Rain = 0
KARS 111750Z 18013G19KT 37/15 A3011 RMK A01 T03660154  RH  030%=      5-min Rain = 0
KARS 111755Z 18012KT 37/15 A3012 RMK A01 T03670147  RH  028%=      5-min Rain = 0
KARS 111800Z 17014KT 37/15 A3011 RMK A01 T03680149  RH  029%=      5-min Rain = 0
KARS 111805Z 19011G16KT 37/14 A3011 RMK A01 T03690143  RH  027%=      5-min Rain = 0
KARS 111810Z 18012G17KT 37/15 A3011 RMK A01 T03740154  RH  029%=      5-min Rain = 0
KARS 111815Z 18013G19KT 37/15 A3011 RMK A01 T03720148  RH  028%=      5-min Rain = 0
KARS 111820Z 19012G17KT 37/14 A3011 RMK A01 T03740140  RH  026%=      5-min Rain = 0
KARS 111825Z 18012G17KT 38/13 A3011 RMK A01 T03770132  RH  024%=      5-min Rain = 0
KARS 111830Z 17011KT 38/14 A301 RMK A01 T03790140  RH  025%=      5-min Rain = 0
KARS 111835Z 18012G20KT 38/12 A3011 RMK A01 T03830119  RH  022%=      5-min Rain = 0
KARS 111840Z 19014G19KT 38/13 A3011 RMK A01 T03820127  RH  023%=      5-min Rain = 0
KARS 111845Z 18014KT 39/13 A301 RMK A01 T03850130  RH  023%=      5-min Rain = 0
KARS 111850Z 18016G21KT 39/11 A301 RMK A01 T03910108  RH  019%=      5-min Rain = 0
KARS 111855Z 18015G21KT 39/12 A301 RMK A01 T03900115  RH  020%=      5-min Rain = 0
KARS 111900Z 18014G20KT 39/11 A301 RMK A01 T03870110  RH  020%=      5-min Rain = 0
KARS 111905Z 19013KT 39/12 A3009 RMK A01 T03870116  RH  021%=      5-min Rain = 0
KARS 111910Z 17016KT 39/11 A3009 RMK A01 T03920113  RH  020%=      5-min Rain = 0
KARS 111915Z 17015G22KT 39/10 A3009 RMK A01 T03910104  RH  019%=      5-min Rain = 0
KARS 111920Z 18017G22KT 39/11 A3008 RMK A01 T03910111  RH  019%=      5-min Rain = 0
KARS 111925Z 18016G21KT 39/10 A3009 RMK A01 T03920101  RH  018%=      5-min Rain = 0
KARS 111930Z 18015G21KT 39/10 A3009 RMK A01 T03920098  RH  018%=      5-min Rain = 0
KARS 111935Z 19013G18KT 39/11 A3009 RMK A01 T03910111  RH  019%=      5-min Rain = 0
KARS 111940Z 20014G19KT 39/10 A3009 RMK A01 T03910103  RH  018%=      5-min Rain = 0
KARS 111945Z 17013G19KT 39/10 A3009 RMK A01 T03930104  RH  018%=      5-min Rain = 0
KARS 111950Z 18011G19KT 39/12 A3008 RMK A01 T03900115  RH  020%=      5-min Rain = 0
KARS 111955Z 20015G23KT 40/11 A3008 RMK A01 T03980107  RH  018%=      5-min Rain = 0
KARS 112000Z 21014KT 40/11 A3008 RMK A01 T03960113  RH  019%=      5-min Rain = 0
KARS 112005Z 19014G21KT 39/12 A3008 RMK A01 T03920117  RH  020%=      5-min Rain = 0
KARS 112010Z 20014G21KT 40/12 A3008 RMK A01 T03950115  RH  020%=      5-min Rain = 0
KARS 112015Z 19012G21KT 40/12 A3008 RMK A01 T03960116  RH  020%=      5-min Rain = 0
KARS 112020Z 18013G18KT 40/12 A3008 RMK A01 T03960118  RH  020%=      5-min Rain = 0
KARS 112025Z 20013G21KT 40/12 A3007 RMK A01 T03970118  RH  020%=      5-min Rain = 0
KARS 112030Z 20012G19KT 40/12 A3007 RMK A01 T03970118  RH  020%=      5-min Rain = 0
KARS 112035Z 19013G18KT 40/11 A3007 RMK A01 T03980114  RH  019%=      5-min Rain = 0
KARS 112040Z 20012G18KT 40/12 A3007 RMK A01 T03990118  RH  020%=      5-min Rain = 0
KARS 112045Z 19013G18KT 40/12 A3007 RMK A01 T03990117  RH  020%=      5-min Rain = 0
KARS 112050Z 21012KT 40/12 A3006 RMK A01 T04030117  RH  019%=      5-min Rain = 0
KARS 112055Z 22011KT 40/12 A3006 RMK A01 T04000124  RH  020%=      5-min Rain = 0
KARS 112100Z 17011G17KT 40/13 A3006 RMK A01 T03980134  RH  022%=      5-min Rain = 0
KARS 112105Z 17012KT 40/14 A3006 RMK A01 T03960137  RH  023%=      5-min Rain = 0
KARS 112110Z 15011KT 40/13 A3005 RMK A01 T03950133  RH  022%=      5-min Rain = 0
KARS 112115Z 18013G18KT 40/13 A3005 RMK A01 T04000133  RH  022%=      5-min Rain = 0
KARS 112120Z 20009G14KT 41/13 A3005 RMK A01 T04060134  RH  021%=      5-min Rain = 0
KARS 112125Z 17012G17KT 40/13 A3005 RMK A01 T04000131  RH  021%=      5-min Rain = 0
KARS 112130Z 16013G19KT 40/13 A3004 RMK A01 T04000130  RH  021%=      5-min Rain = 0
KARS 112135Z 17013G20KT 40/13 A3004 RMK A01 T04040130  RH  021%=      5-min Rain = 0
KARS 112140Z 17012G18KT 40/13 A3004 RMK A01 T03990125  RH  021%=      5-min Rain = 0
KARS 112145Z 16015G20KT 40/12 A3004 RMK A01 T04020121  RH  020%=      5-min Rain = 0
KARS 112150Z 16012KT 40/12 A3003 RMK A01 T04030121  RH  019%=      5-min Rain = 0
KARS 112155Z 16016G29KT 41/12 A3003 RMK A01 T04070119  RH  019%=      5-min Rain = 0
KARS 112200Z 19013G18KT 41/11 A3003 RMK A01 T04060113  RH  018%=      5-min Rain = 0
KARS 112205Z 18014G20KT 40/12 A3003 RMK A01 T04030115  RH  019%=      5-min Rain = 0
KARS 112210Z 20012G18KT 40/11 A3003 RMK A01 T04040114  RH  019%=      5-min Rain = 0
KARS 112215Z 20014G27KT 41/11 A3002 RMK A01 T04090113  RH  018%=      5-min Rain = 0
KARS 112220Z 19014G19KT 41/11 A3003 RMK A01 T04060110  RH  018%=      5-min Rain = 0
KARS 112225Z 19012G18KT 41/10 A3002 RMK A01 T04060104  RH  017%=      5-min Rain = 0
KARS 112230Z 18013G19KT 40/11 A3002 RMK A01 T04040108  RH  018%=      5-min Rain = 0
KARS 112235Z 19014G19KT 41/11 A3002 RMK A01 T04050106  RH  017%=      5-min Rain = 0
KARS 112240Z 21010KT 41/10 A3002 RMK A01 T04060101  RH  017%=      5-min Rain = 0
KARS 112245Z 19013G19KT 41/10 A3002 RMK A01 T04060102  RH  017%=      5-min Rain = 0
KARS 112250Z 20011G18KT 41/10 A3001 RMK A01 T04050101  RH  017%=      5-min Rain = 0
KARS 112255Z 16016G22KT 41/10 A3001 RMK A01 T04050102  RH  017%=      5-min Rain = 0
KARS 112300Z 18015G23KT 41/10 A3001 RMK A01 T04070102  RH  017%=      5-min Rain = 0
KARS 112305Z 17014KT 41/10 A30 RMK A01 T04060102  RH  017%=      5-min Rain = 0
KARS 112310Z 18016G21KT 41/10 A30 RMK A01 T04050098  RH  016%=      5-min Rain = 0
KARS 112315Z 18013G20KT 40/10 A30 RMK A01 T04040095  RH  016%=      5-min Rain = 0
KARS 112320Z 18013KT 40/10 A30 RMK A01 T04040098  RH  017%=      5-min Rain = 0
KARS 112325Z 17017G23KT 40/10 A30 RMK A01 T04030098  RH  017%=      5-min Rain = 0
KARS 112330Z 17016G23KT 40/10 A2999 RMK A01 T04030097  RH  017%=      5-min Rain = 0
KARS 112335Z 17016KT 40/10 A2999 RMK A01 T04040095  RH  016%=      5-min Rain = 0
KARS 112340Z 17017KT 40/10 A2999 RMK A01 T04020096  RH  017%=      5-min Rain = 0
KARS 112345Z 18014G21KT 40/09 A2999 RMK A01 T04000093  RH  016%=      5-min Rain = 0
KARS 112350Z 17017KT 40/10 A2999 RMK A01 T04000095  RH  017%=      5-min Rain = 0
KARS 112355Z 17016G21KT 40/10 A2999 RMK A01 T03980095  RH  017%=      5-min Rain = 0
KARS 120000Z 17017G25KT 40/10 A2998 RMK A01 T03960095  RH  017%=      5-min Rain = 0
KARS 120005Z 18018KT 40/09 A2999 RMK A01 T03970094  RH  017%=      5-min Rain = 0
KARS 120010Z 18016G22KT 40/10 A2999 RMK A01 T03960096  RH  017%=      5-min Rain = 0
KARS 120015Z 17016KT 39/10 A2999 RMK A01 T03940098  RH  017%=      5-min Rain = 0
KARS 120020Z 18017G22KT 40/10 A2999 RMK A01 T03950096  RH  017%=      5-min Rain = 0
KARS 120025Z 18018KT 39/10 A2999 RMK A01 T03930095  RH  017%=      5-min Rain = 0
KARS 120030Z 17017KT 39/09 A2999 RMK A01 T03900094  RH  017%=      5-min Rain = 0
KARS 120035Z 17017KT 39/09 A2999 RMK A01 T03880094  RH  018%=      5-min Rain = 0
KARS 120040Z 17017G22KT 39/09 A2999 RMK A01 T03860093  RH  018%=      5-min Rain = 0
KARS 120045Z 17016KT 39/09 A2999 RMK A01 T03860093  RH  018%=      5-min Rain = 0
KARS 120050Z 17017KT 38/09 A2999 RMK A01 T03820092  RH  018%=      5-min Rain = 0
KARS 120055Z 17015KT 38/09 A2999 RMK A01 T03810093  RH  018%=      5-min Rain = 0
KARS 120100Z 17016KT 38/09 A2999 RMK A01 T03800093  RH  018%=      5-min Rain = 0
KARS 120105Z 17017KT 38/09 A2999 RMK A01 T03790092  RH  018%=      5-min Rain = 0
KARS 120110Z 17015G20KT 38/09 A2999 RMK A01 T03770090  RH  018%=      5-min Rain = 0
KARS 120115Z 17014KT 38/09 A2999 RMK A01 T03750091  RH  018%=      5-min Rain = 0
KARS 120120Z 17013KT 37/09 A2999 RMK A01 T03720092  RH  019%=      5-min Rain = 0
KARS 120125Z 17014KT 37/09 A2999 RMK A01 T03690093  RH  019%=      5-min Rain = 0
KARS 120130Z 17014KT 37/09 A2999 RMK A01 T03660092  RH  020%=      5-min Rain = 0
KARS 120135Z 17013KT 36/09 A2999 RMK A01 T03640093  RH  020%=      5-min Rain = 0
KARS 120140Z 17012KT 36/09 A2999 RMK A01 T03590093  RH  020%=      5-min Rain = 0
KARS 120145Z 17011KT 36/10 A30 RMK A01 T03550095  RH  021%=      5-min Rain = 0
KARS 120150Z 17011KT 35/10 A30 RMK A01 T03510096  RH  022%=      5-min Rain = 0
KARS 120155Z 17012KT 35/10 A30 RMK A01 T03490096  RH  022%=      5-min Rain = 0
KARS 120200Z 17011KT 35/10 A30 RMK A01 T03460096  RH  022%=      5-min Rain = 0
KARS 120205Z 17011KT 34/10 A30 RMK A01 T03440096  RH  023%=      5-min Rain = 0
KARS 120210Z 17011KT 34/10 A2999 RMK A01 T03410095  RH  023%=      5-min Rain = 0
KARS 120215Z 17011KT 34/10 A2999 RMK A01 T03390096  RH  023%=      5-min Rain = 0
KARS 120220Z 17011KT 34/10 A2999 RMK A01 T03350096  RH  024%=      5-min Rain = 0
KARS 120225Z 17010KT 33/10 A2999 RMK A01 T03320096  RH  024%=      5-min Rain = 0
KARS 120230Z 17011KT 33/10 A2999 RMK A01 T03300096  RH  024%=      5-min Rain = 0
KARS 120235Z 17010KT 33/10 A2999 RMK A01 T03270096  RH  025%=      5-min Rain = 0
KARS 120240Z 17010KT 32/10 A2999 RMK A01 T03240096  RH  025%=      5-min Rain = 0
KARS 120245Z 17010KT 32/10 A2999 RMK A01 T03230095  RH  025%=      5-min Rain = 0
KARS 120250Z 17011KT 32/10 A2999 RMK A01 T03220096  RH  025%=      5-min Rain = 0
KARS 120255Z 17011KT 32/10 A2999 RMK A01 T03210096  RH  026%=      5-min Rain = 0
KARS 120300Z 17011KT 32/10 A30 RMK A01 T03200096  RH  026%=      5-min Rain = 0
KARS 120305Z 17011KT 32/10 A30 RMK A01 T03190095  RH  026%=      5-min Rain = 0
KARS 120310Z 17010KT 32/10 A30 RMK A01 T03180095  RH  026%=      5-min Rain = 0
KARS 120315Z 17010KT 32/10 A30 RMK A01 T03170096  RH  026%=      5-min Rain = 0
KARS 120320Z 18011KT 31/10 A30 RMK A01 T03140096  RH  027%=      5-min Rain = 0
KARS 120325Z 18011KT 31/10 A30 RMK A01 T03120096  RH  027%=      5-min Rain = 0
KARS 120330Z 18011KT 31/10 A30 RMK A01 T03110097  RH  027%=      5-min Rain = 0
KARS 120335Z 18010KT 31/10 A30 RMK A01 T03080098  RH  028%=      5-min Rain = 0
KARS 120340Z 18010KT 31/10 A30 RMK A01 T03050099  RH  029%=      5-min Rain = 0
KARS 120345Z 18010KT 30/10 A30 RMK A01 T03020099  RH  029%=      5-min Rain = 0
KARS 120350Z 18009KT 30/10 A30 RMK A01 T03000100  RH  030%=      5-min Rain = 0
KARS 120355Z 18008KT 30/10 A30 RMK A01 T02970100  RH  030%=      5-min Rain = 0
KARS 120400Z 18009KT 30/10 A30 RMK A01 T02950100  RH  031%=      5-min Rain = 0
KARS 120405Z 18009KT 30/10 A3001 RMK A01 T02960101  RH  031%=      5-min Rain = 0
KARS 120410Z 18010KT 30/10 A3001 RMK A01 T02980101  RH  030%=      5-min Rain = 0
KARS 120415Z 18011KT 30/10 A3001 RMK A01 T03000101  RH  030%=      5-min Rain = 0
KARS 120420Z 18011KT 30/10 A3001 RMK A01 T03030100  RH  029%=      5-min Rain = 0
KARS 120425Z 19012KT 30/10 A3001 RMK A01 T03040098  RH  029%=      5-min Rain = 0
KARS 120430Z 19011KT 31/10 A3001 RMK A01 T03060097  RH  028%=      5-min Rain = 0
KARS 120435Z 19011KT 31/10 A3001 RMK A01 T03070098  RH  028%=      5-min Rain = 0
KARS 120440Z 18011KT 31/10 A3001 RMK A01 T03050099  RH  029%=      5-min Rain = 0
KARS 120445Z 18010KT 30/10 A3001 RMK A01 T03030099  RH  029%=      5-min Rain = 0
KARS 120450Z 18010KT 30/10 A30 RMK A01 T03010100  RH  030%=      5-min Rain = 0
KARS 120455Z 18010KT 30/10 A30 RMK A01 T02990101  RH  030%=      5-min Rain = 0

Page generated in 0.0155 seconds.